createdAt,value
2022-10-04T00:01:44.429Z,13.13
2022-10-04T00:04:29.465Z,10.75
2022-10-04T00:06:59.727Z,11.57
2022-10-04T00:09:41.681Z,9.90
2022-10-04T00:12:29.135Z,11.88
2022-10-04T00:15:00.505Z,10.73
2022-10-04T00:17:32.016Z,10.95
2022-10-04T00:19:59.419Z,9.82
2022-10-04T00:22:31.486Z,8.82
2022-10-04T00:25:07.653Z,10.50
2022-10-04T00:27:39.327Z,11.40
2022-10-04T00:30:06.704Z,8.57
2022-10-04T00:32:40.032Z,8.20
2022-10-04T00:35:39.875Z,9.25
2022-10-04T00:38:06.830Z,7.85
2022-10-04T00:40:55.748Z,7.30
2022-10-04T00:43:30.349Z,8.32
2022-10-04T00:46:06.551Z,7.13
2022-10-04T00:48:39.532Z,7.60
2022-10-04T00:51:18.768Z,7.07
2022-10-04T00:53:53.657Z,8.75
2022-10-04T00:56:43.824Z,8.50
2022-10-04T00:59:27.389Z,8.50
2022-10-04T01:02:13.591Z,8.30
2022-10-04T01:04:59.821Z,9.18
2022-10-04T01:07:29.830Z,9.15
2022-10-04T01:10:02.663Z,8.93
2022-10-04T01:12:56.745Z,9.70
2022-10-04T01:15:31.693Z,10.05
2022-10-04T01:18:29.019Z,8.57
2022-10-04T01:21:09.591Z,8.43
2022-10-04T01:24:20.536Z,9.57
2022-10-04T01:26:47.808Z,9.18
2022-10-04T01:29:31.910Z,9.05
2022-10-04T01:32:01.240Z,9.25
2022-10-04T01:34:30.678Z,7.75
2022-10-04T01:37:00.599Z,9.10
2022-10-04T01:39:29.174Z,8.88
2022-10-04T01:42:09.749Z,11.45
2022-10-04T01:44:44.563Z,10.02
2022-10-04T01:47:18.611Z,9.63
2022-10-04T01:49:47.618Z,8.23
2022-10-04T01:52:31.927Z,8.15
2022-10-04T01:55:10.115Z,7.53
2022-10-04T01:57:55.053Z,7.22
2022-10-04T02:00:23.746Z,6.27
2022-10-04T02:03:08.785Z,6.70
2022-10-04T02:06:04.789Z,5.35
2022-10-04T02:08:36.208Z,5.18
2022-10-04T02:11:05.660Z,7.35
2022-10-04T02:13:39.705Z,7.88
2022-10-04T02:16:12.602Z,6.30
2022-10-04T02:18:43.814Z,5.95
2022-10-04T02:21:13.320Z,5.53
2022-10-04T02:23:42.093Z,6.28
2022-10-04T02:26:11.125Z,6.40
2022-10-04T02:28:39.158Z,5.75
2022-10-04T02:31:28.851Z,6.35
2022-10-04T02:33:58.873Z,5.45
2022-10-04T02:36:29.823Z,5.40
2022-10-04T02:39:26.340Z,6.45
2022-10-04T02:42:03.394Z,5.43
2022-10-04T02:44:44.042Z,6.55
2022-10-04T02:47:23.767Z,6.18
2022-10-04T02:50:06.429Z,5.93
2022-10-04T02:52:46.887Z,4.97
2022-10-04T02:55:24.081Z,6.70
2022-10-04T02:57:52.861Z,6.07
2022-10-04T03:00:23.729Z,5.20
2022-10-04T03:03:09.792Z,6.75
2022-10-04T03:05:38.329Z,4.90
2022-10-04T03:08:06.577Z,5.18
2022-10-04T03:10:35.839Z,4.15
2022-10-04T03:13:04.152Z,5.55
2022-10-04T03:15:33.082Z,4.15
2022-10-04T03:18:01.157Z,5.75
2022-10-04T03:20:28.749Z,3.10
2022-10-04T03:22:57.294Z,2.85
2022-10-04T03:25:35.940Z,3.55
2022-10-04T03:28:03.606Z,4.57
2022-10-04T03:30:32.739Z,3.53
2022-10-04T03:33:00.495Z,3.00
2022-10-04T03:35:33.664Z,3.85
2022-10-04T03:38:03.389Z,3.42
2022-10-04T03:40:33.315Z,3.60
2022-10-04T03:43:03.833Z,2.63
2022-10-04T03:45:33.818Z,3.03
2022-10-04T03:48:08.640Z,2.80
2022-10-04T03:50:41.509Z,2.30
2022-10-04T03:53:16.356Z,3.08
2022-10-04T03:55:45.045Z,2.50
2022-10-04T03:58:15.978Z,2.28
2022-10-04T04:00:48.885Z,3.85
2022-10-04T04:03:20.660Z,5.22
2022-10-04T04:05:53.901Z,3.33
2022-10-04T04:08:29.873Z,2.70
2022-10-04T04:10:59.899Z,2.10
2022-10-04T04:13:48.016Z,2.78
2022-10-04T04:16:15.783Z,3.03
2022-10-04T04:18:45.646Z,2.28
2022-10-04T04:21:18.960Z,2.33
2022-10-04T04:24:03.059Z,4.03
2022-10-04T04:26:42.636Z,2.45
2022-10-04T04:29:23.471Z,3.30
2022-10-04T04:31:59.875Z,2.55
2022-10-04T04:34:35.538Z,5.25
2022-10-04T04:37:05.040Z,3.95
2022-10-04T04:39:40.346Z,3.88
2022-10-04T04:45:19.572Z,3.45
2022-10-04T04:47:50.782Z,3.30
2022-10-04T04:50:26.412Z,3.10
2022-10-04T04:53:19.525Z,3.38
2022-10-04T04:56:03.795Z,2.83
2022-10-04T04:58:39.067Z,3.33
2022-10-04T05:01:15.625Z,4.60
2022-10-04T05:03:43.308Z,4.57
2022-10-04T05:06:30.912Z,3.55
2022-10-04T05:08:58.536Z,4.43
2022-10-04T05:11:32.006Z,2.90
2022-10-04T05:14:10.576Z,2.88
2022-10-04T05:16:56.095Z,3.33
2022-10-04T05:19:35.742Z,3.83
2022-10-04T05:22:17.369Z,3.33
2022-10-04T05:24:47.355Z,3.63
2022-10-04T05:27:32.952Z,4.05
2022-10-04T05:30:09.446Z,4.70
2022-10-04T05:32:58.766Z,4.72
2022-10-04T05:35:28.919Z,3.50
2022-10-04T05:37:59.095Z,4.07
2022-10-04T05:40:47.063Z,3.50
2022-10-04T05:43:49.003Z,4.40
2022-10-04T05:46:23.521Z,3.28
2022-10-04T05:49:09.046Z,3.93
2022-10-04T05:52:01.988Z,4.32
2022-10-04T05:54:33.614Z,4.38
2022-10-04T05:57:21.882Z,3.40
2022-10-04T06:00:22.326Z,3.90
2022-10-04T06:03:04.932Z,4.35
2022-10-04T06:05:55.046Z,4.85
2022-10-04T06:08:44.073Z,3.90
2022-10-04T06:11:32.518Z,4.13
2022-10-04T06:14:37.391Z,4.82
2022-10-04T06:17:12.235Z,5.30
2022-10-04T06:20:18.527Z,5.60
2022-10-04T06:22:48.387Z,4.30
2022-10-04T06:25:26.718Z,4.68
2022-10-04T06:28:00.755Z,3.42
2022-10-04T06:30:32.209Z,3.65
2022-10-04T06:33:23.307Z,3.17
2022-10-04T06:36:25.737Z,3.60
2022-10-04T06:39:04.264Z,2.92
2022-10-04T06:41:46.372Z,3.13
2022-10-04T06:44:26.352Z,3.05
2022-10-04T06:47:02.142Z,2.88
2022-10-04T06:49:32.014Z,2.58
2022-10-04T06:52:26.547Z,3.20
2022-10-04T06:55:31.254Z,3.33
2022-10-04T06:58:38.488Z,2.55
2022-10-04T07:01:23.715Z,2.10
2022-10-04T07:04:49.944Z,2.47
2022-10-04T07:07:36.040Z,2.60
2022-10-04T07:10:29.837Z,2.80
2022-10-04T07:13:24.892Z,2.60
2022-10-04T07:16:36.432Z,2.22
2022-10-04T07:19:25.118Z,3.67
2022-10-04T07:22:07.508Z,2.47
2022-10-04T07:24:49.983Z,3.35
2022-10-04T07:27:32.173Z,2.90
2022-10-04T07:30:04.961Z,2.95
2022-10-04T07:32:45.084Z,2.80
2022-10-04T07:35:14.969Z,3.00
2022-10-04T07:38:01.934Z,2.63
2022-10-04T07:40:37.087Z,2.88
2022-10-04T07:43:09.411Z,2.85
2022-10-04T07:45:42.433Z,2.53
2022-10-04T07:48:16.873Z,3.20
2022-10-04T07:50:56.115Z,3.42
2022-10-04T07:53:55.976Z,2.90
2022-10-04T07:56:34.489Z,2.55
2022-10-04T07:59:20.632Z,2.85
2022-10-04T08:02:07.443Z,2.97
2022-10-04T08:05:02.344Z,3.17
2022-10-04T08:07:48.354Z,2.72
2022-10-04T08:10:26.110Z,4.72
2022-10-04T08:13:06.803Z,3.42
2022-10-04T08:15:39.653Z,3.08
2022-10-04T08:18:27.288Z,3.33
2022-10-04T08:20:59.630Z,2.50
2022-10-04T08:23:48.463Z,3.40
2022-10-04T08:26:30.804Z,2.42
2022-10-04T08:29:44.709Z,2.90
2022-10-04T08:32:19.987Z,2.90
2022-10-04T08:34:47.346Z,3.03
2022-10-04T08:37:45.019Z,2.65
2022-10-04T08:40:46.059Z,2.65
2022-10-04T08:43:40.443Z,2.65
2022-10-04T08:46:43.201Z,3.30
2022-10-04T08:49:29.471Z,3.15
2022-10-04T08:52:27.378Z,3.47
2022-10-04T08:55:35.414Z,3.53
2022-10-04T08:58:33.757Z,3.70
2022-10-04T09:01:32.982Z,4.68
2022-10-04T09:04:06.501Z,4.28
2022-10-04T09:06:55.033Z,3.75
2022-10-04T09:09:59.768Z,4.30
2022-10-04T09:12:35.078Z,3.97
2022-10-04T09:17:55.594Z,4.38
2022-10-04T09:20:38.294Z,4.32
2022-10-04T09:23:44.237Z,6.13
2022-10-04T09:26:34.015Z,5.07
2022-10-04T09:29:33.387Z,4.68
2022-10-04T09:32:19.738Z,5.50
2022-10-04T09:35:00.254Z,6.57
2022-10-04T09:38:03.247Z,3.90
2022-10-04T09:40:40.920Z,4.90
2022-10-04T09:43:36.225Z,5.07
2022-10-04T09:46:37.380Z,4.43
2022-10-04T09:49:11.182Z,4.57
2022-10-04T09:51:50.655Z,4.85
2022-10-04T09:54:51.673Z,4.63
2022-10-04T09:57:56.531Z,4.53
2022-10-04T10:00:37.090Z,3.13
2022-10-04T10:03:29.384Z,3.20
2022-10-04T10:06:10.861Z,6.22
2022-10-04T10:08:56.867Z,3.70
2022-10-04T10:11:54.489Z,3.60
2022-10-04T10:14:29.972Z,3.88
2022-10-04T10:17:22.183Z,4.00
2022-10-04T10:20:00.468Z,3.50
2022-10-04T10:22:56.570Z,4.03
2022-10-04T10:25:35.765Z,3.55
2022-10-04T10:28:25.600Z,5.40
2022-10-04T10:31:22.597Z,3.85
2022-10-04T10:34:24.625Z,3.38
2022-10-04T10:37:16.380Z,3.72
2022-10-04T10:40:12.170Z,3.25
2022-10-04T10:43:18.000Z,3.95
2022-10-04T10:46:17.031Z,2.70
2022-10-04T10:49:04.640Z,3.03
2022-10-04T10:52:06.598Z,2.90
2022-10-04T10:54:50.694Z,2.97
2022-10-04T10:57:30.004Z,2.72
2022-10-04T11:00:11.518Z,3.10
2022-10-04T11:03:13.729Z,2.80
2022-10-04T11:06:18.512Z,3.05
2022-10-04T11:09:06.916Z,2.55
2022-10-04T11:12:11.733Z,3.40
2022-10-04T11:14:57.418Z,2.42
2022-10-04T11:20:42.625Z,3.08
2022-10-04T11:23:37.437Z,1.80
2022-10-04T11:26:26.255Z,3.63
2022-10-04T11:29:10.660Z,2.45
2022-10-04T11:32:02.745Z,3.17
2022-10-04T11:34:45.027Z,3.47
2022-10-04T11:37:18.183Z,2.17
2022-10-04T11:40:19.908Z,2.45
2022-10-04T11:43:13.491Z,2.53
2022-10-04T11:46:18.245Z,2.05
2022-10-04T11:49:12.182Z,2.20
2022-10-04T11:55:45.522Z,2.05
2022-10-04T11:58:33.776Z,2.38
2022-10-04T12:01:40.621Z,2.28
2022-10-04T12:04:32.958Z,2.47
2022-10-04T12:07:27.736Z,2.03
2022-10-04T12:10:01.315Z,3.03
2022-10-04T12:12:40.657Z,2.17
2022-10-04T12:15:39.415Z,2.30
2022-10-04T12:18:15.776Z,2.75
2022-10-04T12:20:54.560Z,1.98
2022-10-04T12:23:43.456Z,1.80
2022-10-04T12:26:41.663Z,1.67
2022-10-04T12:29:30.492Z,2.13
2022-10-04T12:32:19.968Z,2.22
2022-10-04T12:35:22.746Z,2.92
2022-10-04T12:38:15.697Z,1.77
2022-10-04T12:40:46.568Z,2.28
2022-10-04T12:43:57.554Z,1.90
2022-10-04T12:46:35.733Z,1.80
2022-10-04T12:49:22.291Z,2.28
2022-10-04T12:52:17.158Z,3.75
2022-10-04T12:54:54.129Z,2.05
2022-10-04T12:57:40.542Z,1.52
2022-10-04T13:00:19.282Z,1.63
2022-10-04T13:03:04.001Z,2.45
2022-10-04T13:05:47.162Z,1.55
2022-10-04T13:08:39.466Z,2.75
2022-10-04T13:11:47.180Z,1.48
2022-10-04T13:14:43.640Z,1.80
2022-10-04T13:17:35.760Z,1.35
2022-10-04T13:20:21.202Z,2.25
2022-10-04T13:22:59.365Z,1.92
2022-10-04T13:25:48.183Z,1.30
2022-10-04T13:28:32.239Z,1.92
2022-10-04T13:31:10.388Z,1.55
2022-10-04T13:33:58.749Z,1.70
2022-10-04T13:37:11.383Z,1.48
2022-10-04T13:40:04.696Z,0.90
2022-10-04T13:42:56.673Z,1.92
2022-10-04T13:45:43.307Z,2.45
2022-10-04T13:48:34.869Z,2.08
2022-10-04T13:51:39.039Z,1.75
2022-10-04T13:54:48.520Z,1.20
2022-10-04T13:57:43.445Z,1.17
2022-10-04T14:00:20.840Z,1.70
2022-10-04T14:03:11.426Z,1.48
2022-10-04T14:05:59.582Z,1.13
2022-10-04T14:08:37.031Z,1.30
2022-10-04T14:11:24.137Z,2.13
2022-10-04T14:14:20.256Z,1.27
2022-10-04T14:19:59.616Z,1.35
2022-10-04T14:22:53.993Z,0.90
2022-10-04T14:25:42.603Z,1.58
2022-10-04T14:28:40.625Z,1.27
2022-10-04T14:31:23.770Z,1.70
2022-10-04T14:34:09.383Z,1.10
2022-10-04T14:37:33.508Z,1.77
2022-10-04T14:40:15.947Z,1.13
2022-10-04T14:43:10.006Z,1.40
2022-10-04T14:46:15.596Z,1.38
2022-10-04T14:49:06.537Z,1.30
2022-10-04T14:52:07.094Z,1.60
2022-10-04T14:55:08.552Z,1.25
2022-10-04T14:58:17.475Z,1.55
2022-10-04T15:01:03.283Z,1.60
2022-10-04T15:04:00.849Z,2.03
2022-10-04T15:06:54.769Z,1.17
2022-10-04T15:09:37.635Z,1.80
2022-10-04T15:12:58.547Z,1.60
2022-10-04T15:15:21.442Z,1.23
2022-10-04T15:17:51.518Z,1.58
2022-10-04T15:20:29.610Z,1.25
2022-10-04T15:23:13.863Z,3.13
2022-10-04T15:26:14.061Z,1.70
2022-10-04T15:28:50.051Z,1.23
2022-10-04T15:31:20.988Z,2.08
2022-10-04T15:34:24.507Z,1.40
2022-10-04T15:37:25.864Z,1.20
2022-10-04T15:40:30.697Z,1.15
2022-10-04T15:43:36.638Z,1.30
2022-10-04T15:46:33.505Z,0.98
2022-10-04T15:49:44.063Z,1.63
2022-10-04T15:52:49.915Z,1.00
2022-10-04T15:55:29.451Z,1.75
2022-10-04T15:58:16.795Z,1.58
2022-10-04T16:00:58.890Z,1.60
2022-10-04T16:03:50.269Z,1.30
2022-10-04T16:06:33.718Z,1.77
2022-10-04T16:09:45.615Z,1.08
2022-10-04T16:12:48.877Z,1.40
2022-10-04T16:15:39.534Z,1.20
2022-10-04T16:18:45.639Z,2.28
2022-10-04T16:21:20.212Z,2.58
2022-10-04T16:23:48.366Z,1.33
2022-10-04T16:26:20.048Z,1.38
2022-10-04T16:28:59.546Z,2.15
2022-10-04T16:31:54.770Z,4.95
2022-10-04T16:34:28.861Z,11.65
2022-10-04T16:37:25.081Z,5.20
2022-10-04T16:42:52.297Z,33.47
2022-10-04T16:45:53.721Z,11.80
2022-10-04T16:48:33.370Z,7.22
2022-10-04T16:51:18.860Z,6.43
2022-10-04T16:53:51.925Z,4.72
2022-10-04T16:56:22.724Z,2.50
2022-10-04T16:58:55.138Z,2.28
2022-10-04T17:01:34.316Z,2.75
2022-10-04T17:04:12.243Z,3.13
2022-10-04T17:06:48.638Z,2.75
2022-10-04T17:09:32.695Z,2.30
2022-10-04T17:12:11.666Z,1.80
2022-10-04T17:15:27.923Z,2.45
2022-10-04T17:18:01.184Z,1.70
2022-10-04T17:20:43.294Z,1.88
2022-10-04T17:23:54.680Z,2.03
2022-10-04T17:27:05.590Z,3.70
2022-10-04T17:29:51.773Z,1.60
2022-10-04T17:32:45.843Z,1.45
2022-10-04T17:35:16.684Z,2.00
2022-10-04T17:38:09.754Z,2.10
2022-10-04T17:40:57.893Z,2.88
2022-10-04T17:43:47.818Z,1.95
2022-10-04T17:46:38.512Z,1.70
2022-10-04T17:49:38.450Z,2.08
2022-10-04T17:52:35.356Z,2.88
2022-10-04T17:55:16.646Z,1.80
2022-10-04T17:58:05.262Z,2.28
2022-10-04T18:00:54.036Z,1.98
2022-10-04T18:03:26.622Z,1.77
2022-10-04T18:05:59.599Z,2.55
2022-10-04T18:08:39.272Z,1.98
2022-10-04T18:11:33.299Z,2.40
2022-10-04T18:14:11.229Z,3.40
2022-10-04T18:17:13.418Z,2.20
2022-10-04T18:20:02.127Z,2.28
2022-10-04T18:22:45.972Z,2.25
2022-10-04T18:25:27.087Z,2.45
2022-10-04T18:28:07.773Z,2.42
2022-10-04T18:30:54.214Z,2.13
2022-10-04T18:33:44.780Z,2.20
2022-10-04T18:36:47.244Z,2.35
2022-10-04T18:39:16.302Z,2.17
2022-10-04T18:41:54.353Z,2.13
2022-10-04T18:44:31.847Z,2.45
2022-10-04T18:47:12.071Z,3.35
2022-10-04T18:49:49.847Z,3.10
2022-10-04T18:52:47.608Z,2.47
2022-10-04T18:55:42.682Z,3.67
2022-10-04T18:58:53.271Z,2.75
2022-10-04T19:02:04.782Z,2.55
2022-10-04T19:04:39.369Z,3.03
2022-10-04T19:07:20.894Z,3.73
2022-10-04T19:10:12.483Z,3.25
2022-10-04T19:12:53.070Z,3.88
2022-10-04T19:15:30.079Z,4.07
2022-10-04T19:18:28.784Z,4.38
2022-10-04T19:21:07.493Z,4.10
2022-10-04T19:23:45.166Z,4.18
2022-10-04T19:26:36.983Z,3.30
2022-10-04T19:29:16.554Z,2.92
2022-10-04T19:31:59.442Z,3.33
2022-10-04T19:34:48.600Z,3.10
2022-10-04T19:37:33.423Z,2.42
2022-10-04T19:40:06.986Z,4.05
2022-10-04T19:42:59.519Z,3.53
2022-10-04T19:45:39.244Z,3.47
2022-10-04T19:51:38.850Z,3.25
2022-10-04T19:54:16.073Z,3.30
2022-10-04T19:56:47.907Z,3.33
2022-10-04T19:59:27.086Z,3.33
2022-10-04T20:01:54.272Z,3.60
2022-10-04T20:04:38.342Z,2.70
2022-10-04T20:07:24.118Z,3.95
2022-10-04T20:13:06.682Z,3.20
2022-10-04T20:15:35.133Z,3.70
2022-10-04T20:18:22.931Z,3.20
2022-10-04T20:21:11.718Z,2.95
2022-10-04T20:23:39.243Z,3.40
2022-10-04T20:26:09.183Z,3.53
2022-10-04T20:28:41.055Z,3.63
2022-10-04T20:31:10.667Z,3.90
2022-10-04T20:33:39.415Z,3.70
2022-10-04T20:36:11.218Z,3.63
2022-10-04T20:38:46.381Z,3.88
2022-10-04T20:41:28.804Z,3.33
2022-10-04T20:44:04.383Z,4.30
2022-10-04T20:46:38.611Z,3.75
2022-10-04T20:49:16.072Z,4.70
2022-10-04T20:51:50.440Z,3.42
2022-10-04T20:54:18.423Z,3.97
2022-10-04T20:56:50.718Z,3.90
2022-10-04T20:59:18.812Z,4.13
2022-10-04T21:02:10.421Z,3.92
2022-10-04T21:04:46.402Z,3.65
2022-10-04T21:07:22.848Z,3.25
2022-10-04T21:09:50.881Z,3.85
2022-10-04T21:12:27.366Z,4.82
2022-10-04T21:15:12.478Z,3.42
2022-10-04T21:17:42.798Z,3.78
2022-10-04T21:20:42.830Z,3.70
2022-10-04T21:23:30.706Z,3.60
2022-10-04T21:26:22.021Z,3.05
2022-10-04T21:28:54.020Z,4.20
2022-10-04T21:31:21.452Z,4.28
2022-10-04T21:33:48.788Z,4.10
2022-10-04T21:36:15.823Z,4.32
2022-10-04T21:38:43.147Z,3.75
2022-10-04T21:41:10.584Z,3.45
2022-10-04T21:43:37.877Z,3.58
2022-10-04T21:46:05.303Z,4.78
2022-10-04T21:48:32.580Z,3.63
2022-10-04T21:50:59.691Z,4.03
2022-10-04T21:53:27.074Z,4.63
2022-10-04T21:55:54.466Z,4.60
2022-10-04T21:58:21.623Z,3.58
2022-10-04T22:00:48.989Z,3.85
2022-10-04T22:03:16.157Z,5.50
2022-10-04T22:05:43.418Z,4.18
2022-10-04T22:08:10.707Z,4.15
2022-10-04T22:10:38.122Z,4.88
2022-10-04T22:13:05.421Z,4.60
2022-10-04T22:15:32.902Z,4.40
2022-10-04T22:18:00.348Z,7.20
2022-10-04T22:20:28.353Z,4.82
2022-10-04T22:22:58.642Z,5.05
2022-10-04T22:25:28.124Z,4.68
2022-10-04T22:27:55.606Z,4.63
2022-10-04T22:30:28.199Z,5.03
2022-10-04T22:32:58.046Z,4.70
2022-10-04T22:35:25.593Z,4.50
2022-10-04T22:37:53.706Z,5.55
2022-10-04T22:40:23.672Z,4.00
2022-10-04T22:42:56.129Z,4.22
2022-10-04T22:45:27.475Z,5.28
2022-10-04T22:47:58.407Z,4.68
2022-10-04T22:50:33.155Z,5.00
2022-10-04T22:53:20.699Z,4.88
2022-10-04T22:55:52.336Z,4.82
2022-10-04T22:58:21.271Z,4.57
2022-10-04T23:00:48.795Z,4.75
2022-10-04T23:03:31.871Z,4.93
2022-10-04T23:06:03.258Z,4.43
2022-10-04T23:08:31.172Z,5.78
2022-10-04T23:10:59.924Z,4.97
2022-10-04T23:13:28.767Z,4.65
2022-10-04T23:16:00.799Z,4.95
2022-10-04T23:18:29.808Z,4.57
2022-10-04T23:21:00.275Z,4.50
2022-10-04T23:23:30.416Z,5.40
2022-10-04T23:25:57.650Z,5.40
2022-10-04T23:28:24.963Z,5.88
2022-10-04T23:31:06.621Z,4.40
2022-10-04T23:33:34.672Z,4.63
2022-10-04T23:36:01.726Z,5.07
2022-10-04T23:38:30.561Z,4.57
2022-10-04T23:40:57.860Z,6.28
2022-10-04T23:43:26.180Z,6.00
2022-10-04T23:45:56.195Z,4.45
2022-10-04T23:48:27.643Z,5.55
2022-10-04T23:50:58.009Z,4.80
2022-10-04T23:53:28.700Z,4.80
2022-10-04T23:55:57.723Z,5.45
2022-10-04T23:58:30.226Z,4.50
